Gilbertown, Alabama
Current Conditions -  °F | °C
As of 5:58 PM on Saturday 20 Dec 2014 (Local Time) from KMEI Reporting Station
Clear Clear  
Wind Chill: 43°   Ceiling: Unl
Heat Index: 46°   Visibility: 10mi
Dew Point: 40°   Wind: 6mph
Humidity: 79%   Direction: 30°NNE
Pressure: 30.17"   Gusts: NA
Location:  31.88°N, 88.32°W
Report Text: KMEI 202358Z 03005KT 10SM CLR 08/04 A3017 RMK AO2 SLP218 T00780044 10128 20078 53006
Loading
Personal Weather Stations






























Interactive Weather Map New forecast layout! Learn more

10-Day Weather Forecast

Advertisements
Track Severe Weather on mobile